Laketown, Wisconsin
Current Conditions -  °F | °C
As of 3:55 AM on Saturday 29 Nov 2014 (Local Time) from KROS Reporting Station
Broken Clouds Broken Clouds  
Wind Chill: 21°   Ceiling: 12000
Heat Index: 21°   Visibility: 10mi
Dew Point: 18°   Wind: 0mph
Humidity: 89%   Direction: NA
Pressure: 29.57"   Gusts: NA
Location:  45.5664°N, 92.6511°W
Report Text: KROS 290955Z AUTO 00000KT 10SM BKN120 M06/M08 A2957 RMK AO2 T10621077
Loading
Personal Weather Stations






























Interactive Weather Map New forecast layout! Learn more

10-Day Weather Forecast

Advertisements
Track Severe Weather on mobile